createdAt,value
2024-01-24T00:02:09.027Z,98356.94
2024-01-24T00:07:00.613Z,98337.72
2024-01-24T00:11:52.281Z,98336.09
2024-01-24T00:16:43.880Z,98351.75
2024-01-24T00:21:38.349Z,98333.03
2024-01-24T00:26:29.995Z,98360.06
2024-01-24T00:31:21.752Z,98363.28
2024-01-24T00:36:13.401Z,98375.94
2024-01-24T00:41:05.198Z,98374.31
2024-01-24T00:45:57.313Z,98396.53
2024-01-24T00:50:48.948Z,98410.91
2024-01-24T00:55:40.516Z,98414.09
2024-01-24T01:00:32.128Z,98445.25
2024-01-24T01:05:23.771Z,98438.66
2024-01-24T01:10:15.459Z,98453.50
2024-01-24T01:15:07.297Z,98449.66
2024-01-24T01:19:59.491Z,98475.91
2024-01-24T01:24:51.130Z,98501.03
2024-01-24T01:29:42.822Z,98523.66
2024-01-24T01:34:34.569Z,98532.50
2024-01-24T01:39:26.358Z,98496.41
2024-01-24T01:44:18.599Z,98560.22
2024-01-24T01:49:10.607Z,98557.75
2024-01-24T01:54:02.619Z,98581.56
2024-01-24T01:58:54.374Z,98588.25
2024-01-24T02:03:47.532Z,98595.81
2024-01-24T02:08:41.029Z,98608.50
2024-01-24T02:13:33.130Z,98612.53
2024-01-24T02:18:25.176Z,98597.00
2024-01-24T02:23:19.269Z,98622.09
2024-01-24T02:28:10.863Z,98617.38
2024-01-24T02:33:03.133Z,98603.72
2024-01-24T02:37:55.335Z,98635.72
2024-01-24T02:42:46.956Z,98635.72
2024-01-24T02:47:38.705Z,98676.94
2024-01-24T02:52:32.839Z,98680.69
2024-01-24T02:57:24.460Z,98692.69
2024-01-24T03:02:16.060Z,98722.25
2024-01-24T03:07:07.772Z,98710.09
2024-01-24T03:11:59.427Z,98719.06
2024-01-24T03:16:51.152Z,98730.13
2024-01-24T03:21:43.098Z,98758.00
2024-01-24T03:26:34.752Z,98752.47
2024-01-24T03:31:26.307Z,98777.19
2024-01-24T03:36:17.901Z,98774.72
2024-01-24T03:41:09.563Z,98796.03
2024-01-24T03:46:01.857Z,98785.06
2024-01-24T03:50:53.534Z,98819.88
2024-01-24T03:55:45.261Z,98833.31
2024-01-24T04:00:36.962Z,98838.34
2024-01-24T04:05:28.656Z,98847.13
2024-01-24T04:10:20.648Z,98868.31
2024-01-24T04:15:12.309Z,98881.22
2024-01-24T04:20:04.320Z,98879.44
2024-01-24T04:24:56.099Z,98900.72
2024-01-24T04:29:47.796Z,98915.72
2024-01-24T04:34:39.451Z,98931.81
2024-01-24T04:39:31.642Z,98958.06
2024-01-24T04:44:23.186Z,98967.22
2024-01-24T04:49:26.236Z,98983.88
2024-01-24T04:54:26.319Z,99004.09
2024-01-24T04:59:17.843Z,99026.16
2024-01-24T05:04:10.836Z,99054.50
2024-01-24T05:09:03.781Z,99055.75
2024-01-24T05:13:56.960Z,99073.47
2024-01-24T05:18:48.711Z,99093.91
2024-01-24T05:23:41.721Z,99107.00
2024-01-24T05:28:33.374Z,99108.31
2024-01-24T05:33:25.063Z,99123.31
2024-01-24T05:38:16.643Z,99108.97
2024-01-24T05:43:08.299Z,99107.75
2024-01-24T05:47:59.973Z,99135.19
2024-01-24T05:52:52.608Z,99126.28
2024-01-24T05:57:47.458Z,99151.25
2024-01-24T06:02:39.131Z,99215.50
2024-01-24T06:07:31.671Z,99191.78
2024-01-24T06:12:23.747Z,99225.72
2024-01-24T06:17:15.389Z,99222.00
2024-01-24T06:22:07.140Z,99218.69
2024-01-24T06:26:58.852Z,99271.25
2024-01-24T06:31:51.403Z,99291.63
2024-01-24T06:36:43.026Z,99283.97
2024-01-24T06:41:34.721Z,99266.53
2024-01-24T06:46:29.135Z,99283.16
2024-01-24T06:51:20.788Z,99318.06
2024-01-24T06:56:12.372Z,99328.06
2024-01-24T07:01:04.059Z,99312.28
2024-01-24T07:05:55.688Z,99355.91
2024-01-24T07:10:47.244Z,99363.81
2024-01-24T07:15:39.082Z,99414.91
2024-01-24T07:20:30.977Z,99428.84
2024-01-24T07:25:22.841Z,99385.84
2024-01-24T07:30:15.224Z,99410.34
2024-01-24T07:35:07.326Z,99434.00
2024-01-24T07:39:59.017Z,99463.50
2024-01-24T07:44:50.859Z,99478.03
2024-01-24T07:49:43.241Z,99441.28
2024-01-24T07:54:35.338Z,99455.22
2024-01-24T07:59:27.108Z,99491.34
2024-01-24T08:04:19.162Z,99526.63
2024-01-24T08:09:12.521Z,99505.44
2024-01-24T08:14:05.290Z,99510.03
2024-01-24T08:18:57.877Z,99533.47
2024-01-24T08:23:51.690Z,99553.22
2024-01-24T08:28:46.339Z,99550.31
2024-01-24T08:33:38.152Z,99585.63
2024-01-24T08:38:31.450Z,99605.16
2024-01-24T08:43:23.096Z,99616.59
2024-01-24T08:48:15.550Z,99640.91
2024-01-24T08:53:07.301Z,99641.31
2024-01-24T08:57:59.032Z,99645.09
2024-01-24T09:02:50.787Z,99648.81
2024-01-24T09:07:43.009Z,99672.31
2024-01-24T09:12:34.721Z,99688.78
2024-01-24T09:17:27.219Z,99704.59
2024-01-24T09:22:18.899Z,99713.72
2024-01-24T09:27:10.978Z,99724.78
2024-01-24T09:32:02.541Z,99755.44
2024-01-24T09:36:55.464Z,99776.03
2024-01-24T09:41:52.047Z,99785.22
2024-01-24T09:46:43.833Z,99785.03
2024-01-24T09:51:36.412Z,99813.50
2024-01-24T09:56:30.291Z,99810.78
2024-01-24T10:01:23.230Z,99828.69
2024-01-24T10:06:17.631Z,99826.22
2024-01-24T10:11:10.699Z,99824.97
2024-01-24T10:16:09.375Z,99837.06
2024-01-24T10:21:06.492Z,99851.44
2024-01-24T10:25:59.191Z,99849.59
2024-01-24T10:30:51.714Z,99860.22
2024-01-24T10:35:44.671Z,99857.97
2024-01-24T10:40:38.532Z,99869.66
2024-01-24T10:45:32.648Z,99892.38
2024-01-24T10:50:26.187Z,99893.47
2024-01-24T10:55:18.850Z,99903.69
2024-01-24T11:00:12.793Z,99888.88
2024-01-24T11:05:09.497Z,99912.63
2024-01-24T11:10:17.458Z,99898.41
2024-01-24T11:15:14.896Z,99904.66
2024-01-24T11:20:08.155Z,99936.38
2024-01-24T11:25:00.621Z,99934.31
2024-01-24T11:29:53.681Z,99955.97
2024-01-24T11:34:45.729Z,99966.41
2024-01-24T11:39:41.187Z,99989.75
2024-01-24T11:44:33.386Z,99962.88
2024-01-24T11:49:27.608Z,99955.75
2024-01-24T11:54:19.946Z,99948.69
2024-01-24T11:59:12.533Z,99970.16
2024-01-24T12:04:05.800Z,99967.25
2024-01-24T12:08:58.551Z,99976.22
2024-01-24T12:13:51.220Z,99962.44
2024-01-24T12:18:42.975Z,99960.78
2024-01-24T12:23:35.816Z,99936.59
2024-01-24T12:28:27.784Z,99951.38
2024-01-24T12:33:20.374Z,99959.94
2024-01-24T12:38:12.662Z,99970.97
2024-01-24T12:43:06.214Z,99964.13
2024-01-24T12:47:57.982Z,99963.06
2024-01-24T12:52:50.004Z,100000.19
2024-01-24T12:57:43.248Z,100014.56
2024-01-24T13:02:35.804Z,100014.34
2024-01-24T13:07:28.137Z,100005.81
2024-01-24T13:12:19.832Z,100007.44
2024-01-24T13:17:11.544Z,100013.53
2024-01-24T13:22:03.281Z,100021.25
2024-01-24T13:26:55.989Z,100022.47
2024-01-24T13:31:48.931Z,100027.72
2024-01-24T13:36:42.404Z,100040.03
2024-01-24T13:41:34.066Z,100045.66
2024-01-24T13:46:25.880Z,100040.03
2024-01-24T13:51:19.227Z,100032.09
2024-01-24T13:56:17.230Z,100000.81
2024-01-24T14:01:09.238Z,100016.25
2024-01-24T14:06:01.311Z,100007.72
2024-01-24T14:10:53.781Z,100000.19
2024-01-24T14:15:45.612Z,99996.84
2024-01-24T14:20:37.247Z,99985.59
2024-01-24T14:25:28.854Z,99991.00
2024-01-24T14:30:20.521Z,99994.75
2024-01-24T14:35:15.765Z,100006.22
2024-01-24T14:40:08.318Z,100011.44
2024-01-24T14:45:02.458Z,100019.97
2024-01-24T14:49:54.154Z,100021.63
2024-01-24T14:54:46.269Z,100013.28
2024-01-24T14:59:38.361Z,100022.22
2024-01-24T15:04:30.072Z,100035.97
2024-01-24T15:09:22.241Z,100042.00
2024-01-24T15:14:14.212Z,100068.03
2024-01-24T15:19:05.861Z,100063.88
2024-01-24T15:23:57.659Z,100063.00
2024-01-24T15:28:49.282Z,100064.91
2024-01-24T15:33:42.796Z,100088.66
2024-01-24T15:38:36.403Z,100088.38
2024-01-24T15:43:28.312Z,100094.22
2024-01-24T15:48:20.196Z,100092.56
2024-01-24T15:53:12.210Z,100088.97
2024-01-24T15:58:04.139Z,100088.34
2024-01-24T16:02:56.657Z,100095.81
2024-01-24T16:07:48.401Z,100098.31
2024-01-24T16:12:40.592Z,100104.31
2024-01-24T16:17:33.158Z,100103.03
2024-01-24T16:22:32.934Z,100107.38
2024-01-24T16:27:28.075Z,100109.00
2024-01-24T16:32:20.545Z,100100.00
2024-01-24T16:37:12.175Z,100104.94
2024-01-24T16:42:06.385Z,100098.81
2024-01-24T16:46:58.195Z,100108.50
2024-01-24T16:51:50.765Z,100131.28
2024-01-24T16:56:42.795Z,100135.53
2024-01-24T17:01:34.788Z,100135.63
2024-01-24T17:06:26.717Z,100147.41
2024-01-24T17:11:19.889Z,100155.81
2024-01-24T17:16:11.528Z,100173.44
2024-01-24T17:21:05.178Z,100181.47
2024-01-24T17:25:57.746Z,100188.66
2024-01-24T17:30:49.866Z,100199.19
2024-01-24T17:35:43.681Z,100200.50
2024-01-24T17:40:35.524Z,100206.03
2024-01-24T17:45:27.193Z,100206.09
2024-01-24T17:50:19.197Z,100195.78
2024-01-24T17:55:11.479Z,100206.00
2024-01-24T18:00:06.086Z,100222.31
2024-01-24T18:04:58.491Z,100206.03
2024-01-24T18:09:54.058Z,100209.28
2024-01-24T18:14:45.677Z,100199.22
2024-01-24T18:19:37.348Z,100207.38
2024-01-24T18:24:29.349Z,100211.88
2024-01-24T18:29:20.939Z,100213.84
2024-01-24T18:34:12.630Z,100218.44
2024-01-24T18:39:04.643Z,100204.69
2024-01-24T18:43:56.245Z,100211.81
2024-01-24T18:48:48.662Z,100217.09
2024-01-24T18:53:44.817Z,100218.81
2024-01-24T18:58:36.690Z,100229.47
2024-01-24T19:03:28.865Z,100222.28
2024-01-24T19:08:20.804Z,100228.56
2024-01-24T19:13:12.481Z,100231.59
2024-01-24T19:18:10.871Z,100248.59
2024-01-24T19:23:05.968Z,100243.38
2024-01-24T19:27:57.593Z,100231.09
2024-01-24T19:32:49.363Z,100227.09
2024-01-24T19:37:41.230Z,100230.63
2024-01-24T19:42:32.868Z,100216.84
2024-01-24T19:47:29.952Z,100214.34
2024-01-24T19:52:21.967Z,100232.34
2024-01-24T19:57:14.134Z,100229.00
2024-01-24T20:02:05.767Z,100231.19
2024-01-24T20:06:57.718Z,100234.25
2024-01-24T20:11:49.369Z,100242.69
2024-01-24T20:16:41.542Z,100249.25
2024-01-24T20:21:38.958Z,100249.59
2024-01-24T20:26:30.610Z,100258.81
2024-01-24T20:36:28.162Z,100265.94
2024-01-24T20:41:19.823Z,100268.78
2024-01-24T20:46:11.990Z,100271.16
2024-01-24T20:51:04.882Z,100274.19
2024-01-24T20:55:56.978Z,100288.50
2024-01-24T21:00:48.889Z,100285.97
2024-01-24T21:05:40.662Z,100302.13
2024-01-24T21:10:32.917Z,100322.16
2024-01-24T21:15:24.675Z,100334.44
2024-01-24T21:20:16.515Z,100341.66
2024-01-24T21:25:09.138Z,100347.03
2024-01-24T21:30:01.101Z,100354.44
2024-01-24T21:34:53.139Z,100365.38
2024-01-24T21:39:44.814Z,100347.88
2024-01-24T21:44:36.469Z,100350.91
2024-01-24T21:49:29.238Z,100355.63
2024-01-24T21:54:21.093Z,100354.97
2024-01-24T21:59:12.780Z,100348.91
2024-01-24T22:04:04.890Z,100341.00
2024-01-24T22:09:00.515Z,100342.38
2024-01-24T22:13:52.185Z,100362.84
2024-01-24T22:18:47.997Z,100379.69
2024-01-24T22:23:41.047Z,100366.59
2024-01-24T22:28:32.733Z,100363.03
2024-01-24T22:33:24.697Z,100365.88
2024-01-24T22:38:16.570Z,100362.53
2024-01-24T22:43:08.286Z,100359.00
2024-01-24T22:48:01.670Z,100365.88
2024-01-24T22:52:53.426Z,100352.09
2024-01-24T22:57:50.160Z,100364.72
2024-01-24T23:02:42.403Z,100361.00
2024-01-24T23:07:34.168Z,100358.16
2024-01-24T23:12:26.180Z,100371.44
2024-01-24T23:17:18.114Z,100365.56
2024-01-24T23:22:09.773Z,100380.00
2024-01-24T23:27:01.511Z,100383.22
2024-01-24T23:31:53.094Z,100389.78
2024-01-24T23:36:45.477Z,100375.63
2024-01-24T23:41:40.212Z,100370.44
2024-01-24T23:46:34.512Z,100358.34
2024-01-24T23:51:26.895Z,100364.72
2024-01-24T23:56:18.655Z,100359.34
